Athelstane, WI (54104)

5:56 PM CST on January 24, 2017 (GMT -0600)
Athelstane Township | | Change Station

Elev 966 ft 45.40 °N, 88.12 °W | Updated 13 seconds ago

Overcast
Overcast
35.1 °F
Feels Like 35 °F
N
0.0
Wind Variable Wind from NE
Gusts 0.0 mph

Today
High -- | Low -- °F
--% Chance of Precip.
Yesterday
High -- | Low -- °F
Precip. -- in
Pressure 29.83 in
Visibility 9.0 miles
Clouds Overcast 1500 ft
Windchill 35 °F
Dew Point 34 °F
Humidity 95%
Rainfall 0.01 in
Snow Depth Not available.
7:21 AM 4:48 PM
Waning Crescent, 9% visible
METAR KIMT 242254Z AUTO 30003KT 9SM OVC015 02/00 A2979 RMK AO2 SLP102 T00220000
Pressure 29.83 in
Visibility 9.0 miles
Clouds Overcast 1500 ft
Windchill 35 °F
Dew Point 34 °F
Humidity 95%
Rainfall 0.01 in
Snow Depth Not available.
7:21 AM 4:48 PM
Waning Crescent, 9% visible
METAR KIMT 242254Z AUTO 30003KT 9SM OVC015 02/00 A2979 RMK AO2 SLP102 T00220000

Get Your Daily Forecast Email!

Thanks for signing up!

Be on the lookout for a verification email in your inbox.

You'll start receiving the daily forecast at 8 AM.

×

10-Day Weather Forecast

Almanac

Astronomy

Jan. 24, 2017 Rise Set
Actual Time
Civil Twilight
Nautical Twilight
Astronomical Twilight
Moon
Length of Visible Light
Length of Day
Tomorrow will be .
, % of the Moon is Illuminated

Today's Extremes

State Highs State Lows

Community

WunderPhotos

Upload Photos

1,962,540 photos uploaded!

WunderBlog® & News

Nearby

Air Quality

  Air Quality AQ Index Pollutant
Not available.

Snow Depth

Station Depth Elevation

Earthquake Activity

City Distance Mag. Time & Date
Minimum magnitude displayed is 2.5.

Coastal Water Temperatures

Place Temperature

Stations

Nearby Weather Stations

Station Location Temp. Windchill Dew Point Humidity Wind Precip. Elev Updated Type
                   

Watches & Warnings

There are currently no watches in effect.